sensor_id;sensor_type;location;lat;lon;timestamp;P1;durP1;ratioP1;P2;durP2;ratioP2
261;SDS011;114;48.260;10.988;2023-10-19T00:00:57;25.63;;;18.43;;
261;SDS011;114;48.260;10.988;2023-10-19T00:03:24;24.43;;;19.17;;
261;SDS011;114;48.260;10.988;2023-10-19T00:05:49;25.03;;;20.13;;
261;SDS011;114;48.260;10.988;2023-10-19T00:08:15;21.27;;;18.50;;
261;SDS011;114;48.260;10.988;2023-10-19T00:10:46;21.83;;;19.53;;
261;SDS011;114;48.260;10.988;2023-10-19T00:13:19;23.50;;;19.63;;
261;SDS011;114;48.260;10.988;2023-10-19T00:15:44;21.13;;;17.90;;
261;SDS011;114;48.260;10.988;2023-10-19T00:18:33;21.80;;;18.80;;
261;SDS011;114;48.260;10.988;2023-10-19T00:21:00;20.17;;;17.50;;
261;SDS011;114;48.260;10.988;2023-10-19T00:23:46;25.67;;;19.07;;
261;SDS011;114;48.260;10.988;2023-10-19T00:26:16;25.17;;;20.90;;
261;SDS011;114;48.260;10.988;2023-10-19T00:28:48;28.43;;;19.53;;
261;SDS011;114;48.260;10.988;2023-10-19T00:31:18;27.30;;;21.30;;
261;SDS011;114;48.260;10.988;2023-10-19T00:33:45;26.43;;;19.90;;
261;SDS011;114;48.260;10.988;2023-10-19T00:36:11;29.53;;;21.43;;
261;SDS011;114;48.260;10.988;2023-10-19T00:38:41;32.87;;;21.73;;
261;SDS011;114;48.260;10.988;2023-10-19T00:41:22;29.50;;;20.93;;
261;SDS011;114;48.260;10.988;2023-10-19T00:43:54;28.13;;;21.23;;
261;SDS011;114;48.260;10.988;2023-10-19T00:46:36;24.60;;;20.57;;
261;SDS011;114;48.260;10.988;2023-10-19T00:49:09;23.60;;;19.80;;
261;SDS011;114;48.260;10.988;2023-10-19T00:54:30;24.87;;;20.50;;
261;SDS011;114;48.260;10.988;2023-10-19T00:57:01;27.27;;;21.03;;
261;SDS011;114;48.260;10.988;2023-10-19T00:59:36;30.77;;;20.67;;
261;SDS011;114;48.260;10.988;2023-10-19T01:02:19;23.80;;;19.43;;
261;SDS011;114;48.260;10.988;2023-10-19T01:04:49;29.20;;;20.77;;
261;SDS011;114;48.260;10.988;2023-10-19T01:07:38;24.50;;;19.60;;
261;SDS011;114;48.260;10.988;2023-10-19T01:10:06;25.40;;;18.90;;
261;SDS011;114;48.260;10.988;2023-10-19T01:12:33;21.87;;;19.50;;
261;SDS011;114;48.260;10.988;2023-10-19T01:15:11;24.23;;;19.73;;
261;SDS011;114;48.260;10.988;2023-10-19T01:17:52;23.93;;;18.87;;
261;SDS011;114;48.260;10.988;2023-10-19T01:20:22;25.70;;;19.47;;
261;SDS011;114;48.260;10.988;2023-10-19T01:25:32;24.47;;;19.67;;
261;SDS011;114;48.260;10.988;2023-10-19T01:28:35;28.50;;;21.40;;
261;SDS011;114;48.260;10.988;2023-10-19T01:31:18;35.17;;;21.47;;
261;SDS011;114;48.260;10.988;2023-10-19T01:33:53;26.60;;;21.33;;
261;SDS011;114;48.260;10.988;2023-10-19T01:36:21;25.00;;;20.40;;
261;SDS011;114;48.260;10.988;2023-10-19T01:38:47;26.60;;;19.27;;
261;SDS011;114;48.260;10.988;2023-10-19T01:41:14;27.80;;;20.70;;
261;SDS011;114;48.260;10.988;2023-10-19T01:43:43;32.70;;;21.50;;
261;SDS011;114;48.260;10.988;2023-10-19T01:46:12;25.30;;;19.67;;
261;SDS011;114;48.260;10.988;2023-10-19T01:48:47;23.13;;;19.97;;
261;SDS011;114;48.260;10.988;2023-10-19T01:51:21;28.67;;;18.80;;
261;SDS011;114;48.260;10.988;2023-10-19T01:53:48;25.50;;;19.97;;
261;SDS011;114;48.260;10.988;2023-10-19T01:56:15;24.70;;;19.00;;
261;SDS011;114;48.260;10.988;2023-10-19T01:58:42;24.50;;;19.57;;
261;SDS011;114;48.260;10.988;2023-10-19T02:01:11;25.00;;;19.17;;
261;SDS011;114;48.260;10.988;2023-10-19T02:03:40;24.17;;;19.03;;
261;SDS011;114;48.260;10.988;2023-10-19T02:06:07;23.83;;;19.67;;
261;SDS011;114;48.260;10.988;2023-10-19T02:11:21;22.70;;;19.00;;
261;SDS011;114;48.260;10.988;2023-10-19T02:13:48;23.60;;;18.83;;
261;SDS011;114;48.260;10.988;2023-10-19T02:16:19;24.93;;;20.13;;
261;SDS011;114;48.260;10.988;2023-10-19T02:18:47;23.07;;;17.13;;
261;SDS011;114;48.260;10.988;2023-10-19T02:21:14;23.80;;;18.87;;
261;SDS011;114;48.260;10.988;2023-10-19T02:23:43;21.33;;;18.90;;
261;SDS011;114;48.260;10.988;2023-10-19T02:26:09;23.73;;;18.83;;
261;SDS011;114;48.260;10.988;2023-10-19T02:28:39;21.83;;;18.70;;
261;SDS011;114;48.260;10.988;2023-10-19T02:31:05;26.03;;;19.47;;
261;SDS011;114;48.260;10.988;2023-10-19T02:33:44;23.50;;;18.30;;
261;SDS011;114;48.260;10.988;2023-10-19T02:36:24;22.63;;;18.27;;
261;SDS011;114;48.260;10.988;2023-10-19T02:38:56;24.27;;;18.50;;
261;SDS011;114;48.260;10.988;2023-10-19T02:41:28;25.07;;;20.73;;
261;SDS011;114;48.260;10.988;2023-10-19T02:43:54;20.97;;;18.50;;
261;SDS011;114;48.260;10.988;2023-10-19T02:46:31;19.37;;;17.13;;
261;SDS011;114;48.260;10.988;2023-10-19T02:49:01;22.00;;;17.13;;
261;SDS011;114;48.260;10.988;2023-10-19T02:51:28;20.30;;;17.40;;
261;SDS011;114;48.260;10.988;2023-10-19T02:53:56;21.30;;;17.50;;
261;SDS011;114;48.260;10.988;2023-10-19T02:56:25;21.57;;;17.50;;
261;SDS011;114;48.260;10.988;2023-10-19T02:58:52;19.17;;;16.20;;
261;SDS011;114;48.260;10.988;2023-10-19T03:01:18;19.47;;;16.03;;
261;SDS011;114;48.260;10.988;2023-10-19T03:03:54;21.93;;;18.00;;
261;SDS011;114;48.260;10.988;2023-10-19T03:06:25;24.40;;;17.27;;
261;SDS011;114;48.260;10.988;2023-10-19T03:08:58;19.30;;;16.40;;
261;SDS011;114;48.260;10.988;2023-10-19T03:11:47;20.93;;;16.87;;
261;SDS011;114;48.260;10.988;2023-10-19T03:14:18;23.00;;;15.87;;
261;SDS011;114;48.260;10.988;2023-10-19T03:16:44;17.97;;;15.60;;
261;SDS011;114;48.260;10.988;2023-10-19T03:19:10;19.90;;;16.00;;
261;SDS011;114;48.260;10.988;2023-10-19T03:21:39;19.53;;;16.43;;
261;SDS011;114;48.260;10.988;2023-10-19T03:24:31;22.33;;;16.70;;
261;SDS011;114;48.260;10.988;2023-10-19T03:27:04;21.50;;;17.37;;
261;SDS011;114;48.260;10.988;2023-10-19T03:29:37;20.80;;;16.33;;
261;SDS011;114;48.260;10.988;2023-10-19T03:32:05;18.97;;;16.67;;
261;SDS011;114;48.260;10.988;2023-10-19T03:34:35;24.07;;;16.80;;
261;SDS011;114;48.260;10.988;2023-10-19T03:37:01;22.80;;;15.23;;
261;SDS011;114;48.260;10.988;2023-10-19T03:39:31;16.37;;;14.20;;
261;SDS011;114;48.260;10.988;2023-10-19T03:41:58;19.00;;;15.40;;
261;SDS011;114;48.260;10.988;2023-10-19T03:44:24;19.40;;;14.80;;
261;SDS011;114;48.260;10.988;2023-10-19T03:46:50;21.07;;;15.50;;
261;SDS011;114;48.260;10.988;2023-10-19T03:49:24;22.90;;;15.03;;
261;SDS011;114;48.260;10.988;2023-10-19T03:51:55;19.53;;;14.10;;
261;SDS011;114;48.260;10.988;2023-10-19T03:54:27;17.30;;;15.50;;
261;SDS011;114;48.260;10.988;2023-10-19T03:56:54;18.63;;;15.17;;
261;SDS011;114;48.260;10.988;2023-10-19T03:59:22;18.23;;;16.00;;
261;SDS011;114;48.260;10.988;2023-10-19T04:01:52;22.77;;;15.83;;
261;SDS011;114;48.260;10.988;2023-10-19T04:04:18;20.07;;;16.70;;
261;SDS011;114;48.260;10.988;2023-10-19T04:06:45;21.50;;;15.80;;
261;SDS011;114;48.260;10.988;2023-10-19T04:09:13;19.97;;;15.43;;
261;SDS011;114;48.260;10.988;2023-10-19T04:11:42;22.60;;;16.10;;
261;SDS011;114;48.260;10.988;2023-10-19T04:14:15;19.13;;;14.97;;
261;SDS011;114;48.260;10.988;2023-10-19T04:16:41;16.60;;;14.80;;
261;SDS011;114;48.260;10.988;2023-10-19T04:19:11;19.13;;;15.30;;
261;SDS011;114;48.260;10.988;2023-10-19T04:21:38;17.60;;;15.23;;
261;SDS011;114;48.260;10.988;2023-10-19T04:24:05;18.40;;;16.13;;
261;SDS011;114;48.260;10.988;2023-10-19T04:26:32;22.90;;;14.87;;
261;SDS011;114;48.260;10.988;2023-10-19T04:29:05;21.90;;;15.33;;
261;SDS011;114;48.260;10.988;2023-10-19T04:31:42;19.13;;;15.17;;
261;SDS011;114;48.260;10.988;2023-10-19T04:34:21;19.10;;;14.57;;
261;SDS011;114;48.260;10.988;2023-10-19T04:36:47;15.50;;;13.40;;
261;SDS011;114;48.260;10.988;2023-10-19T04:39:13;19.73;;;15.37;;
261;SDS011;114;48.260;10.988;2023-10-19T04:41:40;17.20;;;15.47;;
261;SDS011;114;48.260;10.988;2023-10-19T04:44:06;17.63;;;15.73;;
261;SDS011;114;48.260;10.988;2023-10-19T04:46:33;17.77;;;14.63;;
261;SDS011;114;48.260;10.988;2023-10-19T04:48:59;16.27;;;14.60;;
261;SDS011;114;48.260;10.988;2023-10-19T04:51:25;15.80;;;14.20;;
261;SDS011;114;48.260;10.988;2023-10-19T04:53:51;16.73;;;14.80;;
261;SDS011;114;48.260;10.988;2023-10-19T04:56:17;17.37;;;15.47;;
261;SDS011;114;48.260;10.988;2023-10-19T04:58:43;16.47;;;14.30;;
261;SDS011;114;48.260;10.988;2023-10-19T05:01:08;19.60;;;15.43;;
261;SDS011;114;48.260;10.988;2023-10-19T05:03:36;17.27;;;15.43;;
261;SDS011;114;48.260;10.988;2023-10-19T05:06:02;23.00;;;16.00;;
261;SDS011;114;48.260;10.988;2023-10-19T05:08:28;21.10;;;15.63;;
261;SDS011;114;48.260;10.988;2023-10-19T05:10:55;23.20;;;15.10;;
261;SDS011;114;48.260;10.988;2023-10-19T05:13:22;17.93;;;15.33;;
261;SDS011;114;48.260;10.988;2023-10-19T05:15:50;18.37;;;16.37;;
261;SDS011;114;48.260;10.988;2023-10-19T05:18:18;22.80;;;15.87;;
261;SDS011;114;48.260;10.988;2023-10-19T05:20:44;19.50;;;15.00;;
261;SDS011;114;48.260;10.988;2023-10-19T05:23:11;21.50;;;15.47;;
261;SDS011;114;48.260;10.988;2023-10-19T05:25:38;20.87;;;14.77;;
261;SDS011;114;48.260;10.988;2023-10-19T05:28:05;23.50;;;15.90;;
261;SDS011;114;48.260;10.988;2023-10-19T05:30:31;16.77;;;14.93;;
261;SDS011;114;48.260;10.988;2023-10-19T05:32:58;18.20;;;15.73;;
261;SDS011;114;48.260;10.988;2023-10-19T05:35:26;16.70;;;15.00;;
261;SDS011;114;48.260;10.988;2023-10-19T05:37:53;17.13;;;15.30;;
261;SDS011;114;48.260;10.988;2023-10-19T05:40:22;16.43;;;13.80;;
261;SDS011;114;48.260;10.988;2023-10-19T05:42:54;17.97;;;16.17;;
261;SDS011;114;48.260;10.988;2023-10-19T05:45:20;22.20;;;15.83;;
261;SDS011;114;48.260;10.988;2023-10-19T05:47:46;18.77;;;14.80;;
261;SDS011;114;48.260;10.988;2023-10-19T05:50:12;20.93;;;17.37;;
261;SDS011;114;48.260;10.988;2023-10-19T05:52:43;18.97;;;16.37;;
261;SDS011;114;48.260;10.988;2023-10-19T05:55:09;15.63;;;13.97;;
261;SDS011;114;48.260;10.988;2023-10-19T05:57:38;15.47;;;13.87;;
261;SDS011;114;48.260;10.988;2023-10-19T06:02:47;14.80;;;13.40;;
261;SDS011;114;48.260;10.988;2023-10-19T06:05:17;24.30;;;18.70;;
261;SDS011;114;48.260;10.988;2023-10-19T06:07:44;19.30;;;14.50;;
261;SDS011;114;48.260;10.988;2023-10-19T06:10:12;17.43;;;15.63;;
261;SDS011;114;48.260;10.988;2023-10-19T06:12:43;17.40;;;14.50;;
261;SDS011;114;48.260;10.988;2023-10-19T06:15:10;21.53;;;15.00;;
261;SDS011;114;48.260;10.988;2023-10-19T06:17:37;16.07;;;14.20;;
261;SDS011;114;48.260;10.988;2023-10-19T06:20:07;15.17;;;11.97;;
261;SDS011;114;48.260;10.988;2023-10-19T06:22:45;18.60;;;13.77;;
261;SDS011;114;48.260;10.988;2023-10-19T06:25:19;14.20;;;12.83;;
261;SDS011;114;48.260;10.988;2023-10-19T06:27:46;20.67;;;12.77;;
261;SDS011;114;48.260;10.988;2023-10-19T06:30:13;16.83;;;13.27;;
261;SDS011;114;48.260;10.988;2023-10-19T06:32:47;16.80;;;11.70;;
261;SDS011;114;48.260;10.988;2023-10-19T06:35:17;14.03;;;11.93;;
261;SDS011;114;48.260;10.988;2023-10-19T06:37:44;16.27;;;12.50;;
261;SDS011;114;48.260;10.988;2023-10-19T06:40:11;17.73;;;11.90;;
261;SDS011;114;48.260;10.988;2023-10-19T06:42:40;13.87;;;11.30;;
261;SDS011;114;48.260;10.988;2023-10-19T06:45:06;16.77;;;10.73;;
261;SDS011;114;48.260;10.988;2023-10-19T06:47:32;19.77;;;11.30;;
261;SDS011;114;48.260;10.988;2023-10-19T06:50:05;15.63;;;11.90;;
261;SDS011;114;48.260;10.988;2023-10-19T06:52:35;10.63;;;9.63;;
261;SDS011;114;48.260;10.988;2023-10-19T06:55:07;13.90;;;9.53;;
261;SDS011;114;48.260;10.988;2023-10-19T06:57:46;14.23;;;10.57;;
261;SDS011;114;48.260;10.988;2023-10-19T07:00:14;12.60;;;10.63;;
261;SDS011;114;48.260;10.988;2023-10-19T07:02:44;15.27;;;9.33;;
261;SDS011;114;48.260;10.988;2023-10-19T07:05:11;9.00;;;8.30;;
261;SDS011;114;48.260;10.988;2023-10-19T07:07:42;9.97;;;9.07;;
261;SDS011;114;48.260;10.988;2023-10-19T07:10:11;10.20;;;9.20;;
261;SDS011;114;48.260;10.988;2023-10-19T07:12:39;9.80;;;8.90;;
261;SDS011;114;48.260;10.988;2023-10-19T07:15:09;10.10;;;8.40;;
261;SDS011;114;48.260;10.988;2023-10-19T07:17:44;10.87;;;8.37;;
261;SDS011;114;48.260;10.988;2023-10-19T07:20:12;9.83;;;7.97;;
261;SDS011;114;48.260;10.988;2023-10-19T07:23:00;8.43;;;7.63;;
261;SDS011;114;48.260;10.988;2023-10-19T07:25:49;9.07;;;8.27;;
261;SDS011;114;48.260;10.988;2023-10-19T07:28:20;9.83;;;8.20;;
261;SDS011;114;48.260;10.988;2023-10-19T07:30:46;9.20;;;8.40;;
261;SDS011;114;48.260;10.988;2023-10-19T07:33:14;10.17;;;8.80;;
261;SDS011;114;48.260;10.988;2023-10-19T07:35:44;11.37;;;10.27;;
261;SDS011;114;48.260;10.988;2023-10-19T07:38:14;15.50;;;10.73;;
261;SDS011;114;48.260;10.988;2023-10-19T07:40:42;12.00;;;10.00;;
261;SDS011;114;48.260;10.988;2023-10-19T07:43:08;11.13;;;8.60;;
261;SDS011;114;48.260;10.988;2023-10-19T07:45:34;10.50;;;8.30;;
261;SDS011;114;48.260;10.988;2023-10-19T07:48:01;7.73;;;6.97;;
261;SDS011;114;48.260;10.988;2023-10-19T07:50:36;8.70;;;7.80;;
261;SDS011;114;48.260;10.988;2023-10-19T07:53:02;7.03;;;6.37;;
261;SDS011;114;48.260;10.988;2023-10-19T07:55:29;7.87;;;7.17;;
261;SDS011;114;48.260;10.988;2023-10-19T07:57:58;12.10;;;6.47;;
261;SDS011;114;48.260;10.988;2023-10-19T08:00:31;8.33;;;7.07;;
261;SDS011;114;48.260;10.988;2023-10-19T08:03:00;7.27;;;6.53;;
261;SDS011;114;48.260;10.988;2023-10-19T08:05:29;8.50;;;7.00;;
261;SDS011;114;48.260;10.988;2023-10-19T08:07:55;6.40;;;5.80;;
261;SDS011;114;48.260;10.988;2023-10-19T08:10:22;11.93;;;5.93;;
261;SDS011;114;48.260;10.988;2023-10-19T08:12:48;9.70;;;6.23;;
261;SDS011;114;48.260;10.988;2023-10-19T08:15:15;6.53;;;5.87;;
261;SDS011;114;48.260;10.988;2023-10-19T08:17:42;10.63;;;6.60;;
261;SDS011;114;48.260;10.988;2023-10-19T08:20:10;5.73;;;5.23;;
261;SDS011;114;48.260;10.988;2023-10-19T08:22:57;5.57;;;5.07;;
261;SDS011;114;48.260;10.988;2023-10-19T08:25:27;8.93;;;5.27;;
261;SDS011;114;48.260;10.988;2023-10-19T08:27:52;5.13;;;4.50;;
261;SDS011;114;48.260;10.988;2023-10-19T08:30:22;6.73;;;4.73;;
261;SDS011;114;48.260;10.988;2023-10-19T08:32:48;7.50;;;5.50;;
261;SDS011;114;48.260;10.988;2023-10-19T08:35:14;13.23;;;4.87;;
261;SDS011;114;48.260;10.988;2023-10-19T08:37:43;9.23;;;6.93;;
261;SDS011;114;48.260;10.988;2023-10-19T08:40:11;7.10;;;5.50;;
261;SDS011;114;48.260;10.988;2023-10-19T08:42:41;4.97;;;4.50;;
261;SDS011;114;48.260;10.988;2023-10-19T08:45:08;8.17;;;5.10;;
261;SDS011;114;48.260;10.988;2023-10-19T08:47:37;9.83;;;5.77;;
261;SDS011;114;48.260;10.988;2023-10-19T08:50:12;7.00;;;4.97;;
261;SDS011;114;48.260;10.988;2023-10-19T08:52:40;6.43;;;5.40;;
261;SDS011;114;48.260;10.988;2023-10-19T08:55:08;6.20;;;5.03;;
261;SDS011;114;48.260;10.988;2023-10-19T08:57:36;15.97;;;4.90;;
261;SDS011;114;48.260;10.988;2023-10-19T09:00:03;6.67;;;5.27;;
261;SDS011;114;48.260;10.988;2023-10-19T09:02:32;5.13;;;4.47;;
261;SDS011;114;48.260;10.988;2023-10-19T09:04:58;10.87;;;6.57;;
261;SDS011;114;48.260;10.988;2023-10-19T09:07:25;5.63;;;5.13;;
261;SDS011;114;48.260;10.988;2023-10-19T09:09:55;5.30;;;4.80;;
261;SDS011;114;48.260;10.988;2023-10-19T09:12:22;4.67;;;4.00;;
261;SDS011;114;48.260;10.988;2023-10-19T09:14:48;5.70;;;5.07;;
261;SDS011;114;48.260;10.988;2023-10-19T09:17:15;7.13;;;5.20;;
261;SDS011;114;48.260;10.988;2023-10-19T09:19:52;5.43;;;4.83;;
261;SDS011;114;48.260;10.988;2023-10-19T09:22:18;5.57;;;4.70;;
261;SDS011;114;48.260;10.988;2023-10-19T09:24:53;10.10;;;4.63;;
261;SDS011;114;48.260;10.988;2023-10-19T09:27:21;5.10;;;4.60;;
261;SDS011;114;48.260;10.988;2023-10-19T09:29:49;13.70;;;4.53;;
261;SDS011;114;48.260;10.988;2023-10-19T09:32:17;4.80;;;4.40;;
261;SDS011;114;48.260;10.988;2023-10-19T09:34:44;4.23;;;3.93;;
261;SDS011;114;48.260;10.988;2023-10-19T09:37:12;10.87;;;3.90;;
261;SDS011;114;48.260;10.988;2023-10-19T09:39:38;8.27;;;4.37;;
261;SDS011;114;48.260;10.988;2023-10-19T09:42:08;4.60;;;4.20;;
261;SDS011;114;48.260;10.988;2023-10-19T09:44:44;3.80;;;3.50;;
261;SDS011;114;48.260;10.988;2023-10-19T09:47:34;11.20;;;4.30;;
261;SDS011;114;48.260;10.988;2023-10-19T09:50:02;7.97;;;4.90;;
261;SDS011;114;48.260;10.988;2023-10-19T09:52:31;7.40;;;5.07;;
261;SDS011;114;48.260;10.988;2023-10-19T09:54:59;6.77;;;4.73;;
261;SDS011;114;48.260;10.988;2023-10-19T09:57:34;6.20;;;4.60;;
261;SDS011;114;48.260;10.988;2023-10-19T10:00:03;12.17;;;5.00;;
261;SDS011;114;48.260;10.988;2023-10-19T10:02:53;10.23;;;5.10;;
261;SDS011;114;48.260;10.988;2023-10-19T10:14:02;13.03;;;7.03;;
261;SDS011;114;48.260;10.988;2023-10-19T10:16:47;21.77;;;8.60;;
261;SDS011;114;48.260;10.988;2023-10-19T10:19:24;14.30;;;7.10;;
261;SDS011;114;48.260;10.988;2023-10-19T10:24:42;14.80;;;6.73;;
261;SDS011;114;48.260;10.988;2023-10-19T10:27:09;7.77;;;4.63;;
261;SDS011;114;48.260;10.988;2023-10-19T10:29:38;6.40;;;4.60;;
261;SDS011;114;48.260;10.988;2023-10-19T10:35:42;5.60;;;3.87;;
261;SDS011;114;48.260;10.988;2023-10-19T10:38:02;6.57;;;3.40;;
261;SDS011;114;48.260;10.988;2023-10-19T10:40:43;16.43;;;3.03;;
261;SDS011;114;48.260;10.988;2023-10-19T10:43:11;6.40;;;3.20;;
261;SDS011;114;48.260;10.988;2023-10-19T10:45:37;3.10;;;2.80;;
261;SDS011;114;48.260;10.988;2023-10-19T10:48:03;3.40;;;2.73;;
261;SDS011;114;48.260;10.988;2023-10-19T10:50:29;2.83;;;2.63;;
261;SDS011;114;48.260;10.988;2023-10-19T10:52:55;3.77;;;3.47;;
261;SDS011;114;48.260;10.988;2023-10-19T10:55:27;13.80;;;3.60;;
261;SDS011;114;48.260;10.988;2023-10-19T10:57:54;6.23;;;2.97;;
261;SDS011;114;48.260;10.988;2023-10-19T11:00:20;7.20;;;2.97;;
261;SDS011;114;48.260;10.988;2023-10-19T11:02:58;6.87;;;3.03;;
261;SDS011;114;48.260;10.988;2023-10-19T11:05:32;5.70;;;3.27;;
261;SDS011;114;48.260;10.988;2023-10-19T11:08:13;3.93;;;3.47;;
261;SDS011;114;48.260;10.988;2023-10-19T11:10:41;4.83;;;3.00;;
261;SDS011;114;48.260;10.988;2023-10-19T11:13:09;5.30;;;3.20;;
261;SDS011;114;48.260;10.988;2023-10-19T11:15:37;3.60;;;2.83;;
261;SDS011;114;48.260;10.988;2023-10-19T11:18:06;3.87;;;2.60;;
261;SDS011;114;48.260;10.988;2023-10-19T11:20:32;4.57;;;3.30;;
261;SDS011;114;48.260;10.988;2023-10-19T11:22:59;7.37;;;3.50;;
261;SDS011;114;48.260;10.988;2023-10-19T11:25:28;8.93;;;3.13;;
261;SDS011;114;48.260;10.988;2023-10-19T11:27:57;5.33;;;3.40;;
261;SDS011;114;48.260;10.988;2023-10-19T11:32:54;5.53;;;2.77;;
261;SDS011;114;48.260;10.988;2023-10-19T11:35:27;6.10;;;2.70;;
261;SDS011;114;48.260;10.988;2023-10-19T11:37:55;3.27;;;2.50;;
261;SDS011;114;48.260;10.988;2023-10-19T11:40:24;5.80;;;2.57;;
261;SDS011;114;48.260;10.988;2023-10-19T11:42:50;4.20;;;3.07;;
261;SDS011;114;48.260;10.988;2023-10-19T11:45:26;4.10;;;2.50;;
261;SDS011;114;48.260;10.988;2023-10-19T11:47:53;4.20;;;2.93;;
261;SDS011;114;48.260;10.988;2023-10-19T11:50:20;3.93;;;2.93;;
261;SDS011;114;48.260;10.988;2023-10-19T11:52:46;4.80;;;4.27;;
261;SDS011;114;48.260;10.988;2023-10-19T11:55:12;3.13;;;2.63;;
261;SDS011;114;48.260;10.988;2023-10-19T11:57:39;2.23;;;2.03;;
261;SDS011;114;48.260;10.988;2023-10-19T12:00:06;2.03;;;1.90;;
261;SDS011;114;48.260;10.988;2023-10-19T12:02:38;2.60;;;2.40;;
261;SDS011;114;48.260;10.988;2023-10-19T12:05:15;2.77;;;2.13;;
261;SDS011;114;48.260;10.988;2023-10-19T12:07:40;9.03;;;2.33;;
261;SDS011;114;48.260;10.988;2023-10-19T12:10:07;3.27;;;2.30;;
261;SDS011;114;48.260;10.988;2023-10-19T12:12:34;3.33;;;2.17;;
261;SDS011;114;48.260;10.988;2023-10-19T12:15:01;10.60;;;2.50;;
261;SDS011;114;48.260;10.988;2023-10-19T12:17:27;2.20;;;2.10;;
261;SDS011;114;48.260;10.988;2023-10-19T12:19:55;2.87;;;2.40;;
261;SDS011;114;48.260;10.988;2023-10-19T12:22:21;3.27;;;2.23;;
261;SDS011;114;48.260;10.988;2023-10-19T12:24:47;3.27;;;2.07;;
261;SDS011;114;48.260;10.988;2023-10-19T12:27:13;4.70;;;2.60;;
261;SDS011;114;48.260;10.988;2023-10-19T12:29:39;1.87;;;1.73;;
261;SDS011;114;48.260;10.988;2023-10-19T12:32:05;4.17;;;2.37;;
261;SDS011;114;48.260;10.988;2023-10-19T12:34:31;4.57;;;2.00;;
261;SDS011;114;48.260;10.988;2023-10-19T12:36:59;2.83;;;1.70;;
261;SDS011;114;48.260;10.988;2023-10-19T12:39:24;4.67;;;2.30;;
261;SDS011;114;48.260;10.988;2023-10-19T12:42:12;2.40;;;2.20;;
261;SDS011;114;48.260;10.988;2023-10-19T12:44:39;6.27;;;3.13;;
261;SDS011;114;48.260;10.988;2023-10-19T12:47:06;2.90;;;2.53;;
261;SDS011;114;48.260;10.988;2023-10-19T12:49:39;11.67;;;3.73;;
261;SDS011;114;48.260;10.988;2023-10-19T12:52:06;2.60;;;2.33;;
261;SDS011;114;48.260;10.988;2023-10-19T12:54:35;6.93;;;2.80;;
261;SDS011;114;48.260;10.988;2023-10-19T12:57:02;3.90;;;3.50;;
261;SDS011;114;48.260;10.988;2023-10-19T12:59:34;3.43;;;3.13;;
261;SDS011;114;48.260;10.988;2023-10-19T13:02:02;5.63;;;2.70;;
261;SDS011;114;48.260;10.988;2023-10-19T13:04:29;4.50;;;2.37;;
261;SDS011;114;48.260;10.988;2023-10-19T13:06:56;4.07;;;2.23;;
261;SDS011;114;48.260;10.988;2023-10-19T13:09:25;4.20;;;2.40;;
261;SDS011;114;48.260;10.988;2023-10-19T13:11:58;3.97;;;3.37;;
261;SDS011;114;48.260;10.988;2023-10-19T13:14:24;2.40;;;2.30;;
261;SDS011;114;48.260;10.988;2023-10-19T13:16:51;2.43;;;2.33;;
261;SDS011;114;48.260;10.988;2023-10-19T13:19:18;2.90;;;2.70;;
261;SDS011;114;48.260;10.988;2023-10-19T13:21:49;5.33;;;4.47;;
261;SDS011;114;48.260;10.988;2023-10-19T13:24:19;5.10;;;3.57;;
261;SDS011;114;48.260;10.988;2023-10-19T13:26:48;3.80;;;3.40;;
261;SDS011;114;48.260;10.988;2023-10-19T13:29:13;2.90;;;2.70;;
261;SDS011;114;48.260;10.988;2023-10-19T13:31:40;2.70;;;2.23;;
261;SDS011;114;48.260;10.988;2023-10-19T13:34:06;4.10;;;2.00;;
261;SDS011;114;48.260;10.988;2023-10-19T13:36:35;1.90;;;1.80;;
261;SDS011;114;48.260;10.988;2023-10-19T13:39:02;8.63;;;2.40;;
261;SDS011;114;48.260;10.988;2023-10-19T13:41:32;4.17;;;1.97;;
261;SDS011;114;48.260;10.988;2023-10-19T13:43:58;2.50;;;2.27;;
261;SDS011;114;48.260;10.988;2023-10-19T13:46:24;4.13;;;2.30;;
261;SDS011;114;48.260;10.988;2023-10-19T13:48:50;2.63;;;2.53;;
261;SDS011;114;48.260;10.988;2023-10-19T13:51:16;3.00;;;2.73;;
261;SDS011;114;48.260;10.988;2023-10-19T13:53:44;7.63;;;4.70;;
261;SDS011;114;48.260;10.988;2023-10-19T13:56:10;3.40;;;3.20;;
261;SDS011;114;48.260;10.988;2023-10-19T13:58:36;5.00;;;3.40;;
261;SDS011;114;48.260;10.988;2023-10-19T14:01:06;11.20;;;3.53;;
261;SDS011;114;48.260;10.988;2023-10-19T14:03:34;3.73;;;3.00;;
261;SDS011;114;48.260;10.988;2023-10-19T14:06:00;6.93;;;3.23;;
261;SDS011;114;48.260;10.988;2023-10-19T14:08:26;3.63;;;3.37;;
261;SDS011;114;48.260;10.988;2023-10-19T14:10:51;4.87;;;4.00;;
261;SDS011;114;48.260;10.988;2023-10-19T14:13:17;6.10;;;3.43;;
261;SDS011;114;48.260;10.988;2023-10-19T14:15:43;2.97;;;2.77;;
261;SDS011;114;48.260;10.988;2023-10-19T14:18:09;5.37;;;3.47;;
261;SDS011;114;48.260;10.988;2023-10-19T14:20:38;3.63;;;3.33;;
261;SDS011;114;48.260;10.988;2023-10-19T14:23:05;5.97;;;3.27;;
261;SDS011;114;48.260;10.988;2023-10-19T14:25:31;5.33;;;3.23;;
261;SDS011;114;48.260;10.988;2023-10-19T14:28:01;4.13;;;3.50;;
261;SDS011;114;48.260;10.988;2023-10-19T14:30:27;5.57;;;3.77;;
261;SDS011;114;48.260;10.988;2023-10-19T14:32:53;3.90;;;3.70;;
261;SDS011;114;48.260;10.988;2023-10-19T14:35:20;3.47;;;3.27;;
261;SDS011;114;48.260;10.988;2023-10-19T14:37:48;4.00;;;3.20;;
261;SDS011;114;48.260;10.988;2023-10-19T14:40:22;6.47;;;3.73;;
261;SDS011;114;48.260;10.988;2023-10-19T14:42:49;5.00;;;4.50;;
261;SDS011;114;48.260;10.988;2023-10-19T14:45:18;3.47;;;3.27;;
261;SDS011;114;48.260;10.988;2023-10-19T14:47:48;3.37;;;3.07;;
261;SDS011;114;48.260;10.988;2023-10-19T14:50:18;8.70;;;4.17;;
261;SDS011;114;48.260;10.988;2023-10-19T14:52:47;7.03;;;3.40;;
261;SDS011;114;48.260;10.988;2023-10-19T14:55:14;4.33;;;3.70;;
261;SDS011;114;48.260;10.988;2023-10-19T14:57:45;5.00;;;3.80;;
261;SDS011;114;48.260;10.988;2023-10-19T15:00:14;3.33;;;3.13;;
261;SDS011;114;48.260;10.988;2023-10-19T15:02:48;3.90;;;3.47;;
261;SDS011;114;48.260;10.988;2023-10-19T15:05:22;4.60;;;3.83;;
261;SDS011;114;48.260;10.988;2023-10-19T15:07:50;3.23;;;2.93;;
261;SDS011;114;48.260;10.988;2023-10-19T15:10:17;6.17;;;3.40;;
261;SDS011;114;48.260;10.988;2023-10-19T15:12:44;4.30;;;3.83;;
261;SDS011;114;48.260;10.988;2023-10-19T15:15:10;2.63;;;2.43;;
261;SDS011;114;48.260;10.988;2023-10-19T15:17:45;5.70;;;3.00;;
261;SDS011;114;48.260;10.988;2023-10-19T15:20:13;3.37;;;3.17;;
261;SDS011;114;48.260;10.988;2023-10-19T15:22:43;5.27;;;2.63;;
261;SDS011;114;48.260;10.988;2023-10-19T15:25:10;9.87;;;3.00;;
261;SDS011;114;48.260;10.988;2023-10-19T15:27:38;3.37;;;3.10;;
261;SDS011;114;48.260;10.988;2023-10-19T15:30:08;2.83;;;2.73;;
261;SDS011;114;48.260;10.988;2023-10-19T15:32:36;8.60;;;3.03;;
261;SDS011;114;48.260;10.988;2023-10-19T15:35:02;4.93;;;3.00;;
261;SDS011;114;48.260;10.988;2023-10-19T15:37:28;5.53;;;3.50;;
261;SDS011;114;48.260;10.988;2023-10-19T15:39:54;5.10;;;3.43;;
261;SDS011;114;48.260;10.988;2023-10-19T15:42:20;3.93;;;3.57;;
261;SDS011;114;48.260;10.988;2023-10-19T15:44:49;5.00;;;4.43;;
261;SDS011;114;48.260;10.988;2023-10-19T15:47:15;4.20;;;3.80;;
261;SDS011;114;48.260;10.988;2023-10-19T15:49:48;4.87;;;4.23;;
261;SDS011;114;48.260;10.988;2023-10-19T15:52:17;5.23;;;4.50;;
261;SDS011;114;48.260;10.988;2023-10-19T15:54:46;8.57;;;4.33;;
261;SDS011;114;48.260;10.988;2023-10-19T15:57:13;5.50;;;4.20;;